Terminal Aerodrome Forecast
Issued by NWS

Home | Current Version | Previous Version | Text Only | Print | Product List | Glossary On
Versions: 1 2 3 4 5 6 7 8 9 10 11 12 13 14 15 16
000
FTUS44 KLZK 221100 RRA
TAFBPK
TAF
KBPK 221155Z 2212/2312 16011KT P6SM BKN025 OVC070 WS020/20035KT
     FM221400 17011KT 6SM BR VCSH BKN018 OVC025
     FM221700 17010KT 4SM -SHRA OVC012
     FM230300 15011KT 3SM BR VCSH OVC007=

USA.gov is the U.S. government's official web portal to all federal, state and local government web resources and services.